Time;durP1;ratioP1;P1;durP2;ratioP2;P2;SDS_P1;SDS_P2;PMS_P1;PMS_P2;Temp;Humidity;BMP_temperature;BMP_pressure;BME280_temperature;BME280_humidity;BME280_pressure;Samples;Min_cycle;Max_cycle;Signal;HPM_P1;HPM_P2
2023/03/04 00:00:56;;;;;;;35.53;3.25;;;;;;;6.07;100.00;102682.09;5069489;28;20032;-52
2023/03/04 00:03:22;;;;;;;38.83;3.60;;;;;;;6.09;100.00;102677.50;5074877;28;20475;-52
2023/03/04 00:05:48;;;;;;;16.73;1.92;;;;;;;6.18;100.00;102683.16;5071290;28;20063;-51
2023/03/04 00:08:13;;;;;;;27.77;2.15;;;;;;;6.13;100.00;102676.34;5070180;28;20028;-54
2023/03/04 00:10:38;;;;;;;29.58;2.88;;;;;;;6.14;100.00;102682.53;5070108;28;20032;-56
2023/03/04 00:13:04;;;;;;;23.13;2.15;;;;;;;6.15;100.00;102671.72;5059467;28;20518;-51
2023/03/04 00:15:29;;;;;;;31.17;2.28;;;;;;;6.12;100.00;102674.63;5067072;28;20051;-54
2023/03/04 00:17:55;;;;;;;25.02;2.10;;;;;;;6.11;100.00;102680.09;5070426;28;20040;-54
2023/03/04 00:20:20;;;;;;;24.00;2.63;;;;;;;6.07;100.00;102691.94;5068727;28;20457;-54
2023/03/04 00:22:45;;;;;;;23.75;2.47;;;;;;;6.04;100.00;102681.47;5068221;28;20421;-53
2023/03/04 00:25:11;;;;;;;28.70;3.13;;;;;;;5.99;100.00;102680.94;5071028;28;20038;-54
2023/03/04 00:27:37;;;;;;;31.98;2.65;;;;;;;6.00;100.00;102686.16;5070862;28;20025;-52
2023/03/04 00:30:04;;;;;;;35.22;2.65;;;;;;;6.07;100.00;102681.25;5070814;28;20063;-51
2023/03/04 00:32:29;;;;;;;26.70;2.10;;;;;;;6.02;100.00;102675.38;5069343;28;20032;-54
2023/03/04 00:34:55;;;;;;;16.38;2.15;;;;;;;5.98;100.00;102679.19;5071056;28;20038;-52
2023/03/04 00:37:20;;;;;;;27.60;2.45;;;;;;;6.01;100.00;102676.34;5070869;28;20528;-51
2023/03/04 00:39:45;;;;;;;16.90;1.73;;;;;;;5.99;100.00;102679.09;5071077;28;20054;-54
2023/03/04 00:42:11;;;;;;;27.75;2.08;;;;;;;6.00;100.00;102674.63;5070670;28;20067;-52
2023/03/04 00:44:36;;;;;;;23.42;2.58;;;;;;;5.95;100.00;102677.63;5070673;28;20071;-53
2023/03/04 00:47:01;;;;;;;29.88;2.78;;;;;;;5.94;100.00;102681.25;5070756;28;20028;-52
2023/03/04 00:49:27;;;;;;;30.30;2.25;;;;;;;6.01;100.00;102674.53;5071250;28;20024;-51
2023/03/04 00:51:52;;;;;;;29.17;2.60;;;;;;;6.02;100.00;102678.88;5071572;28;20505;-54
2023/03/04 00:54:17;;;;;;;24.90;2.35;;;;;;;6.05;100.00;102669.81;5075983;28;20032;-53
2023/03/04 00:56:43;;;;;;;23.75;1.85;;;;;;;6.10;100.00;102675.69;5077880;28;20031;-52
2023/03/04 00:59:08;;;;;;;19.70;2.13;;;;;;;6.06;100.00;102676.88;5076962;28;20408;-51
2023/03/04 01:01:33;;;;;;;26.33;1.90;;;;;;;5.98;100.00;102668.50;5070995;28;20097;-51
2023/03/04 01:03:59;;;;;;;28.70;2.17;;;;;;;6.08;100.00;102672.25;5069991;28;20028;-52
2023/03/04 01:06:24;;;;;;;27.63;2.50;;;;;;;6.08;100.00;102675.81;5070921;28;20520;-51
2023/03/04 01:08:49;;;;;;;25.23;2.63;;;;;;;6.13;100.00;102678.13;5069536;28;20522;-52
2023/03/04 01:11:15;;;;;;;24.65;3.13;;;;;;;6.07;100.00;102673.22;5070631;28;20371;-56
2023/03/04 01:13:40;;;;;;;22.85;2.50;;;;;;;6.03;100.00;102674.38;5069090;28;20032;-53
2023/03/04 01:16:06;;;;;;;20.70;1.90;;;;;;;6.04;100.00;102671.63;5070464;28;20020;-52
2023/03/04 01:18:32;;;;;;;23.42;2.25;;;;;;;6.05;100.00;102669.81;5070402;28;20044;-52
2023/03/04 01:20:57;;;;;;;23.67;2.10;;;;;;;6.05;100.00;102672.47;5068922;28;20390;-50
2023/03/04 01:23:23;;;;;;;31.98;3.08;;;;;;;6.02;100.00;102662.00;5070165;28;20072;-52
2023/03/04 01:25:48;;;;;;;22.65;1.67;;;;;;;5.94;100.00;102662.53;5070529;28;20039;-52
2023/03/04 01:28:14;;;;;;;27.63;2.58;;;;;;;5.88;100.00;102661.13;5070092;28;20028;-50
2023/03/04 01:30:39;;;;;;;31.42;2.17;;;;;;;5.92;100.00;102654.63;5069222;28;20037;-52
2023/03/04 01:33:04;;;;;;;25.13;2.13;;;;;;;5.89;100.00;102649.44;5069069;28;20039;-52
2023/03/04 01:35:30;;;;;;;23.17;2.55;;;;;;;5.96;100.00;102641.91;5070337;28;20028;-51
2023/03/04 01:37:55;;;;;;;19.17;2.00;;;;;;;6.04;100.00;102642.22;5070323;28;20111;-52
2023/03/04 01:40:20;;;;;;;17.92;2.08;;;;;;;6.00;100.00;102646.06;5069779;28;20115;-52
2023/03/04 01:42:46;;;;;;;26.27;3.60;;;;;;;6.00;100.00;102647.88;5069285;28;20383;-52
2023/03/04 01:45:14;;;;;;;28.90;2.63;;;;;;;5.95;100.00;102640.22;5070237;28;20064;-51
2023/03/04 01:47:42;;;;;;;40.22;2.85;;;;;;;5.94;100.00;102638.47;5070203;28;20039;-52
2023/03/04 01:50:16;;;;;;;16.77;1.45;;;;;;;6.05;100.00;102643.06;5068142;28;20028;-54
2023/03/04 01:52:41;;;;;;;34.72;3.40;;;;;;;6.02;100.00;102635.28;5068748;28;20037;-53
2023/03/04 01:55:19;;;;;;;23.52;2.03;;;;;;;5.92;100.00;102630.56;5069227;28;20237;-52
2023/03/04 01:57:46;;;;;;;26.00;2.37;;;;;;;5.92;100.00;102625.22;5068813;28;20036;-52
2023/03/04 02:00:29;;;;;;;21.13;1.95;;;;;;;5.91;100.00;102619.97;5068885;28;20123;-52
2023/03/04 02:02:58;;;;;;;16.05;1.90;;;;;;;5.89;100.00;102621.88;5069688;28;20017;-51
2023/03/04 02:05:25;;;;;;;21.02;2.00;;;;;;;5.82;100.00;102613.47;5069351;28;20493;-53
2023/03/04 02:07:51;;;;;;;37.67;2.72;;;;;;;5.90;100.00;102610.25;5067848;28;20048;-53
2023/03/04 02:10:16;;;;;;;23.92;2.88;;;;;;;5.83;100.00;102619.66;5069169;28;20040;-52
2023/03/04 02:12:43;;;;;;;25.17;2.38;;;;;;;5.91;100.00;102612.78;5069788;28;20463;-52
2023/03/04 02:15:09;;;;;;;30.40;2.72;;;;;;;5.91;100.00;102611.94;5068830;28;20064;-50
2023/03/04 02:17:34;;;;;;;26.45;2.13;;;;;;;5.88;100.00;102604.16;5068537;28;20048;-52
2023/03/04 02:20:15;;;;;;;23.60;1.73;;;;;;;5.90;100.00;102600.41;5066508;28;20028;-52
2023/03/04 02:23:06;;;;;;;23.15;1.77;;;;;;;5.88;100.00;102596.13;5069409;28;20024;-53
2023/03/04 02:25:36;;;;;;;23.00;2.00;;;;;;;5.89;100.00;102601.34;5049385;28;20041;-53
2023/03/04 02:28:02;;;;;;;27.55;2.08;;;;;;;5.81;100.00;102595.69;5053940;28;20024;-51
2023/03/04 02:30:27;;;;;;;20.98;2.45;;;;;;;5.86;100.00;102593.56;5066994;28;20429;-52
2023/03/04 02:32:52;;;;;;;22.48;2.38;;;;;;;5.72;100.00;102596.34;5069559;28;20028;-52
2023/03/04 02:35:19;;;;;;;25.08;1.70;;;;;;;5.70;100.00;102593.78;5057982;28;20029;-55
2023/03/04 02:37:44;;;;;;;23.10;1.67;;;;;;;5.69;100.00;102596.56;5053051;28;20024;-54
2023/03/04 02:40:23;;;;;;;14.27;1.73;;;;;;;5.72;100.00;102583.00;5068126;28;20101;-53
2023/03/04 02:42:49;;;;;;;28.92;2.55;;;;;;;5.68;100.00;102582.34;5066892;28;20033;-52
2023/03/04 02:45:48;;;;;;;21.60;1.85;;;;;;;5.71;100.00;102579.47;5070548;28;20230;-51
2023/03/04 02:48:17;;;;;;;16.77;1.83;;;;;;;5.72;100.00;102580.31;5024807;28;20045;-51
2023/03/04 02:50:45;;;;;;;32.63;2.10;;;;;;;5.70;100.00;102579.56;5053305;28;20040;-50
2023/03/04 02:53:11;;;;;;;25.45;3.00;;;;;;;5.79;100.00;102576.25;5058672;28;20111;-55
2023/03/04 02:55:36;;;;;;;24.30;2.10;;;;;;;5.77;100.00;102578.19;5072673;28;20058;-53
2023/03/04 02:58:02;;;;;;;21.05;1.75;;;;;;;5.73;100.00;102584.69;5073786;28;20039;-52
2023/03/04 03:00:27;;;;;;;25.98;2.50;;;;;;;5.69;100.00;102585.88;5071752;28;20040;-53
2023/03/04 03:02:53;;;;;;;14.75;1.58;;;;;;;5.76;100.00;102575.63;5072566;28;20131;-55
2023/03/04 03:05:18;;;;;;;21.00;1.77;;;;;;;5.80;100.00;102580.66;5071677;28;20067;-51
2023/03/04 03:07:43;;;;;;;25.88;3.30;;;;;;;5.68;100.00;102578.81;5071758;28;20028;-53
2023/03/04 03:10:10;;;;;;;13.82;2.00;;;;;;;5.67;100.00;102574.44;5053077;28;20532;-50
2023/03/04 03:12:35;;;;;;;23.67;2.00;;;;;;;5.61;100.00;102574.84;5072539;28;20111;-52
2023/03/04 03:15:01;;;;;;;16.73;1.85;;;;;;;5.59;100.00;102568.78;5069978;28;20136;-50
2023/03/04 03:17:26;;;;;;;15.73;1.70;;;;;;;5.57;100.00;102578.72;5072822;28;20039;-51
2023/03/04 03:19:52;;;;;;;24.92;2.28;;;;;;;5.53;100.00;102575.41;5059233;28;20107;-51
2023/03/04 03:22:18;;;;;;;22.58;2.03;;;;;;;5.64;100.00;102569.34;5052845;28;20040;-52
2023/03/04 03:24:43;;;;;;;19.35;2.35;;;;;;;5.61;100.00;102566.84;5068156;28;20035;-52
2023/03/04 03:27:08;;;;;;;21.88;1.85;;;;;;;5.62;100.00;102572.09;5071515;28;20501;-52
2023/03/04 03:29:34;;;;;;;23.00;1.65;;;;;;;5.57;100.00;102566.22;5071644;28;20028;-51
2023/03/04 03:31:59;;;;;;;20.83;1.85;;;;;;;5.62;100.00;102568.56;5071576;28;20056;-51
2023/03/04 03:34:24;;;;;;;23.92;2.03;;;;;;;5.63;100.00;102567.59;5071810;28;20035;-53
2023/03/04 03:36:50;;;;;;;17.02;1.73;;;;;;;5.68;100.00;102568.13;5069981;28;20123;-51
2023/03/04 03:39:16;;;;;;;16.42;1.45;;;;;;;5.69;100.00;102569.88;5057505;28;20107;-52
2023/03/04 03:41:41;;;;;;;23.35;2.33;;;;;;;5.68;100.00;102574.31;5070693;28;20029;-51
2023/03/04 03:44:07;;;;;;;15.05;1.50;;;;;;;5.75;100.00;102573.91;5071698;28;20028;-52
2023/03/04 03:46:32;;;;;;;23.73;2.22;;;;;;;5.76;100.00;102571.13;5070787;28;20024;-52
2023/03/04 03:48:57;;;;;;;14.40;2.25;;;;;;;5.77;100.00;102572.00;5071392;28;20485;-53
2023/03/04 03:51:23;;;;;;;22.70;1.70;;;;;;;5.75;100.00;102568.56;5071496;28;20149;-53
2023/03/04 03:53:48;;;;;;;29.38;2.13;;;;;;;5.77;100.00;102577.34;5071257;28;20029;-51
2023/03/04 03:56:13;;;;;;;22.38;1.80;;;;;;;5.74;100.00;102573.06;5071188;28;20032;-53
2023/03/04 03:58:39;;;;;;;18.38;2.30;;;;;;;5.71;100.00;102578.59;5071053;28;20025;-51
2023/03/04 04:01:04;;;;;;;26.90;2.95;;;;;;;5.70;100.00;102574.22;5070194;28;20612;-52
2023/03/04 04:03:29;;;;;;;29.83;2.05;;;;;;;5.69;100.00;102580.56;5069728;28;20056;-51
2023/03/04 04:05:55;;;;;;;12.25;1.65;;;;;;;5.67;100.00;102579.78;5071722;28;20486;-53
2023/03/04 04:08:20;;;;;;;18.05;2.17;;;;;;;5.72;100.00;102580.31;5071271;28;20078;-51
2023/03/04 04:10:46;;;;;;;23.02;2.65;;;;;;;5.72;100.00;102575.84;5070390;28;20056;-52
2023/03/04 04:13:11;;;;;;;23.15;1.67;;;;;;;5.66;100.00;102575.41;5071705;28;20063;-51
2023/03/04 04:15:37;;;;;;;19.73;1.45;;;;;;;5.63;100.00;102570.28;5071736;28;20415;-51
2023/03/04 04:18:04;;;;;;;19.40;1.70;;;;;;;5.71;100.00;102568.78;5071439;28;20223;-52
2023/03/04 04:20:29;;;;;;;15.10;1.25;;;;;;;5.68;100.00;102571.66;5070396;28;20045;-52
2023/03/04 04:22:55;;;;;;;11.77;1.60;;;;;;;5.75;100.00;102569.41;5069161;28;20035;-51
2023/03/04 04:25:20;;;;;;;16.02;2.45;;;;;;;5.73;100.00;102576.69;5071250;28;20028;-50
2023/03/04 04:27:46;;;;;;;21.50;1.95;;;;;;;5.68;100.00;102568.13;5071107;28;20493;-52
2023/03/04 04:30:11;;;;;;;29.27;2.78;;;;;;;5.65;100.00;102577.22;5070003;28;20137;-51
2023/03/04 04:32:36;;;;;;;24.52;2.10;;;;;;;5.59;100.00;102574.13;5070859;28;20482;-52
2023/03/04 04:35:02;;;;;;;15.95;2.03;;;;;;;5.54;100.00;102576.28;5070874;28;20380;-52
2023/03/04 04:37:27;;;;;;;30.90;3.13;;;;;;;5.55;100.00;102578.81;5071100;28;20462;-52
2023/03/04 04:39:54;;;;;;;22.67;1.77;;;;;;;5.62;100.00;102571.25;5070463;28;20040;-51
2023/03/04 04:42:20;;;;;;;19.88;1.63;;;;;;;5.57;100.00;102570.72;5075713;28;20082;-52
2023/03/04 04:44:46;;;;;;;25.58;2.28;;;;;;;5.60;100.00;102576.69;5073435;28;20050;-51
2023/03/04 04:47:11;;;;;;;17.73;1.70;;;;;;;5.58;100.00;102567.06;5073212;28;20088;-51
2023/03/04 04:49:37;;;;;;;18.98;1.90;;;;;;;5.56;100.00;102566.34;5071371;28;20451;-51
2023/03/04 04:52:02;;;;;;;14.27;1.70;;;;;;;5.59;100.00;102569.66;5070358;28;20024;-52
2023/03/04 04:54:28;;;;;;;18.02;1.67;;;;;;;5.62;100.00;102569.41;5070507;28;20216;-50
2023/03/04 04:56:53;;;;;;;15.88;2.40;;;;;;;5.62;100.00;102571.25;5070882;28;20050;-52
2023/03/04 04:59:18;;;;;;;18.27;1.98;;;;;;;5.63;100.00;102581.81;5069579;28;20029;-53
2023/03/04 05:01:44;;;;;;;16.90;2.00;;;;;;;5.61;100.00;102582.88;5070473;28;20052;-52
2023/03/04 05:04:09;;;;;;;21.67;1.88;;;;;;;5.61;100.00;102580.19;5070217;28;20387;-51
2023/03/04 05:06:35;;;;;;;26.70;2.17;;;;;;;5.59;100.00;102582.16;5051344;28;20032;-54
2023/03/04 05:09:01;;;;;;;15.15;1.92;;;;;;;5.62;100.00;102580.09;5051591;28;20025;-52
2023/03/04 05:11:26;;;;;;;24.25;2.55;;;;;;;5.62;100.00;102584.59;5068704;28;20081;-55
2023/03/04 05:13:52;;;;;;;32.90;2.28;;;;;;;5.66;100.00;102580.72;5065918;28;20029;-54
2023/03/04 05:16:18;;;;;;;24.75;2.13;;;;;;;5.65;100.00;102585.22;5068299;28;20047;-51
2023/03/04 05:18:43;;;;;;;13.85;1.73;;;;;;;5.60;100.00;102587.38;5066938;28;20402;-54
2023/03/04 05:21:09;;;;;;;21.10;2.60;;;;;;;5.60;100.00;102587.38;5067649;28;20024;-52
2023/03/04 05:23:37;;;;;;;12.57;1.30;;;;;;;5.61;100.00;102593.56;5049956;28;20111;-53
2023/03/04 05:26:03;;;;;;;22.33;2.25;;;;;;;5.67;100.00;102594.00;5068380;28;20036;-52
2023/03/04 05:28:29;;;;;;;16.00;1.40;;;;;;;5.57;100.00;102581.41;5068010;28;20036;-54
2023/03/04 05:30:54;;;;;;;24.25;2.15;;;;;;;5.61;100.00;102590.88;5067784;28;20055;-55
2023/03/04 05:33:20;;;;;;;11.07;1.58;;;;;;;5.59;100.00;102582.16;5067006;28;20044;-54
2023/03/04 05:35:47;;;;;;;24.38;2.22;;;;;;;5.57;100.00;102586.72;5067875;28;20020;-52
2023/03/04 05:38:15;;;;;;;28.48;2.17;;;;;;;5.57;100.00;102579.56;5067928;28;20033;-54
2023/03/04 05:40:41;;;;;;;27.50;3.33;;;;;;;5.58;100.00;102577.75;5067475;28;20453;-52
2023/03/04 05:43:07;;;;;;;12.65;1.60;;;;;;;5.56;100.00;102574.34;5066961;28;20368;-53
2023/03/04 05:45:32;;;;;;;31.27;2.22;;;;;;;5.54;100.00;102570.94;5067477;28;20059;-51
2023/03/04 05:47:58;;;;;;;23.23;2.17;;;;;;;5.56;100.00;102572.53;5068297;28;20025;-51
2023/03/04 05:50:24;;;;;;;22.20;1.90;;;;;;;5.59;100.00;102575.00;5065968;28;20111;-53
2023/03/04 05:52:50;;;;;;;19.45;1.70;;;;;;;5.58;100.00;102575.06;5066761;28;20043;-52
2023/03/04 05:55:15;;;;;;;18.40;2.05;;;;;;;5.56;100.00;102577.88;5062551;28;20043;-52
2023/03/04 05:57:41;;;;;;;17.48;1.63;;;;;;;5.60;100.00;102574.00;5063065;28;20414;-52
2023/03/04 06:00:08;;;;;;;27.50;2.70;;;;;;;5.67;100.00;102572.63;5067234;28;20514;-53
2023/03/04 06:02:34;;;;;;;23.08;2.28;;;;;;;5.62;100.00;102587.28;5067069;28;20099;-52
2023/03/04 06:05:00;;;;;;;21.98;2.20;;;;;;;5.60;100.00;102587.38;5067787;28;20040;-51
2023/03/04 06:07:25;;;;;;;23.27;2.15;;;;;;;5.61;100.00;102577.53;5067809;28;20036;-51
2023/03/04 06:09:50;;;;;;;19.83;1.85;;;;;;;5.54;100.00;102587.81;5067220;28;20056;-52
2023/03/04 06:12:16;;;;;;;20.13;1.80;;;;;;;5.41;100.00;102592.28;5065153;28;20528;-52
2023/03/04 06:14:41;;;;;;;19.85;2.17;;;;;;;5.36;100.00;102595.25;5067727;28;20410;-53
2023/03/04 06:17:06;;;;;;;14.15;1.60;;;;;;;5.29;100.00;102599.28;5068504;28;20032;-52
2023/03/04 06:19:32;;;;;;;21.05;2.55;;;;;;;5.31;100.00;102601.88;5070437;28;20139;-52
2023/03/04 06:21:58;;;;;;;21.73;2.17;;;;;;;5.28;100.00;102605.59;5070808;28;20016;-51
2023/03/04 06:24:23;;;;;;;20.20;1.60;;;;;;;5.27;100.00;102602.09;5071590;28;20024;-51
2023/03/04 06:26:49;;;;;;;27.30;2.10;;;;;;;5.30;100.00;102603.69;5070766;28;20032;-52
2023/03/04 06:29:14;;;;;;;24.08;2.53;;;;;;;5.35;100.00;102598.91;5069989;28;20348;-55
2023/03/04 06:31:42;;;;;;;37.35;2.95;;;;;;;5.33;100.00;102603.47;5070930;28;20035;-52
2023/03/04 06:34:08;;;;;;;22.08;2.63;;;;;;;5.37;100.00;102605.00;5071373;28;20035;-53
2023/03/04 06:36:33;;;;;;;21.17;2.63;;;;;;;5.37;100.00;102606.78;5071022;28;20540;-54
2023/03/04 06:39:02;;;;;;;19.67;2.10;;;;;;;5.41;100.00;102613.63;5071595;28;20032;-54
2023/03/04 06:41:27;;;;;;;26.70;2.17;;;;;;;5.48;100.00;102614.94;5069412;28;20035;-54
2023/03/04 06:43:53;;;;;;;18.85;2.22;;;;;;;5.46;100.00;102615.03;5070903;28;20024;-54
2023/03/04 06:46:20;;;;;;;26.50;3.05;;;;;;;5.48;100.00;102615.78;5070771;28;20028;-54
2023/03/04 06:48:45;;;;;;;21.10;1.95;;;;;;;5.44;100.00;102613.44;5069685;28;20059;-53
2023/03/04 06:51:11;;;;;;;23.63;2.13;;;;;;;5.48;100.00;102615.78;5070047;28;20063;-54
2023/03/04 06:53:37;;;;;;;28.13;2.90;;;;;;;5.50;100.00;102615.66;5070787;28;20043;-52
2023/03/04 06:56:03;;;;;;;21.95;3.10;;;;;;;5.53;100.00;102619.94;5070607;28;20348;-53
2023/03/04 06:58:28;;;;;;;19.92;2.13;;;;;;;5.59;100.00;102612.38;5070515;28;20113;-51
2023/03/04 07:00:53;;;;;;;30.17;3.03;;;;;;;5.67;100.00;102611.84;5069627;28;20033;-52
2023/03/04 07:03:20;;;;;;;22.65;2.00;;;;;;;5.68;100.00;102606.38;5070690;28;20111;-51
2023/03/04 07:05:45;;;;;;;21.80;2.70;;;;;;;5.68;100.00;102617.06;5069247;28;20089;-53
2023/03/04 07:08:10;;;;;;;22.70;2.47;;;;;;;5.68;100.00;102611.72;5070073;28;20028;-55
2023/03/04 07:10:36;;;;;;;17.77;1.13;;;;;;;5.69;100.00;102612.59;5067858;28;20028;-51
2023/03/04 07:13:01;;;;;;;26.90;4.82;;;;;;;5.79;100.00;102613.66;5067794;28;20043;-54
2023/03/04 07:15:29;;;;;;;12.02;2.30;;;;;;;5.88;100.00;102618.34;5070188;28;20035;-51
2023/03/04 07:17:54;;;;;;;16.85;3.03;;;;;;;5.92;100.00;102619.00;5073907;28;20082;-55
2023/03/04 07:20:20;;;;;;;14.32;2.03;;;;;;;5.88;100.00;102623.72;5069074;28;20028;-52
2023/03/04 07:22:45;;;;;;;28.25;3.85;;;;;;;5.93;100.00;102621.59;5069772;28;20051;-53
2023/03/04 07:25:10;;;;;;;10.95;1.33;;;;;;;5.96;100.00;102625.03;5069821;28;20055;-53
2023/03/04 07:27:37;;;;;;;12.52;1.48;;;;;;;6.15;100.00;102631.63;5070869;28;20451;-51
2023/03/04 07:30:04;;;;;;;17.50;1.50;;;;;;;6.58;100.00;102627.66;5069431;28;20035;-52
2023/03/04 07:32:29;;;;;;;8.85;1.15;;;;;;;6.82;100.00;102630.38;5070646;28;20024;-54
2023/03/04 07:34:55;;;;;;;23.73;2.05;;;;;;;7.24;100.00;102629.00;5067867;28;20033;-51
2023/03/04 07:37:20;;;;;;;7.97;1.00;;;;;;;7.33;100.00;102627.44;5069641;28;20453;-52
2023/03/04 07:39:45;;;;;;;12.93;1.40;;;;;;;7.19;100.00;102631.16;5069214;28;20020;-52
2023/03/04 07:42:11;;;;;;;2.72;0.50;;;;;;;7.03;100.00;102630.63;5069553;28;20386;-54
2023/03/04 07:44:36;;;;;;;9.48;1.50;;;;;;;6.89;100.00;102630.75;5069679;28;20025;-53
2023/03/04 07:47:01;;;;;;;6.72;0.60;;;;;;;6.78;100.00;102637.75;5069688;28;20023;-53
2023/03/04 07:49:27;;;;;;;3.10;0.60;;;;;;;6.66;100.00;102646.72;5068363;28;20485;-52
2023/03/04 07:51:52;;;;;;;10.77;0.82;;;;;;;6.67;100.00;102651.09;5069042;28;20474;-51
2023/03/04 07:54:19;;;;;;;11.60;0.70;;;;;;;6.70;100.00;102648.19;5069495;28;20033;-51
2023/03/04 07:56:44;;;;;;;7.40;0.75;;;;;;;6.73;100.00;102653.31;5069446;28;20062;-51
2023/03/04 07:59:09;;;;;;;21.58;1.20;;;;;;;6.78;100.00;102658.31;5064513;28;20028;-50
2023/03/04 08:01:37;;;;;;;18.05;1.55;;;;;;;6.77;100.00;102649.44;5069058;28;20059;-53
2023/03/04 08:04:03;;;;;;;13.23;1.30;;;;;;;6.78;100.00;102656.50;5068700;28;20081;-53
2023/03/04 08:06:29;;;;;;;8.80;1.48;;;;;;;6.89;100.00;102647.69;5068088;28;20045;-54
2023/03/04 08:09:00;;;;;;;12.18;1.60;;;;;;;7.21;100.00;102647.09;5068411;28;20154;-54
2023/03/04 08:11:27;;;;;;;6.65;0.70;;;;;;;8.30;100.00;102652.06;5069578;28;20539;-52
2023/03/04 08:13:53;;;;;;;14.52;0.93;;;;;;;8.94;100.00;102652.22;5066805;28;20036;-52
2023/03/04 08:16:19;;;;;;;16.73;1.75;;;;;;;8.83;100.00;102641.50;5068848;28;20054;-51
2023/03/04 08:18:47;;;;;;;8.13;0.75;;;;;;;8.61;100.00;102644.22;5068351;28;20060;-53
2023/03/04 08:21:13;;;;;;;6.85;1.33;;;;;;;8.42;100.00;102637.66;5068185;28;20043;-52
2023/03/04 08:23:41;;;;;;;9.02;0.98;;;;;;;8.06;100.00;102634.25;5067781;28;20480;-51
2023/03/04 08:26:09;;;;;;;9.23;1.02;;;;;;;7.90;100.00;102639.13;5068569;28;20052;-54
2023/03/04 08:28:34;;;;;;;14.40;1.15;;;;;;;7.85;100.00;102657.41;5069157;28;20045;-52
2023/03/04 08:31:00;;;;;;;10.68;1.10;;;;;;;7.80;100.00;102660.44;5068060;28;20029;-52
2023/03/04 08:33:25;;;;;;;6.72;0.98;;;;;;;7.40;100.00;102663.50;5067805;28;20453;-54
2023/03/04 08:35:51;;;;;;;6.18;1.42;;;;;;;7.23;100.00;102667.44;5067619;28;20024;-53
2023/03/04 08:38:17;;;;;;;12.55;1.25;;;;;;;7.03;100.00;102668.09;5068697;28;20032;-52
2023/03/04 08:40:42;;;;;;;18.38;1.90;;;;;;;7.02;100.00;102669.88;5067702;28;20071;-54
2023/03/04 08:43:07;;;;;;;14.05;2.08;;;;;;;7.01;100.00;102670.03;5063294;28;20122;-52
2023/03/04 08:45:33;;;;;;;10.85;1.42;;;;;;;7.13;100.00;102679.78;5063227;28;20024;-52
2023/03/04 08:47:58;;;;;;;7.97;0.82;;;;;;;7.36;100.00;102685.25;5053992;28;20514;-52
2023/03/04 08:50:26;;;;;;;13.35;1.40;;;;;;;7.53;100.00;102690.22;5065705;28;20028;-52
2023/03/04 08:52:51;;;;;;;12.68;1.30;;;;;;;8.16;100.00;102681.78;5064666;28;20071;-51
2023/03/04 08:55:17;;;;;;;20.95;1.50;;;;;;;8.55;100.00;102677.78;5068076;28;20526;-53
2023/03/04 08:57:42;;;;;;;16.88;1.48;;;;;;;8.73;100.00;102664.72;5067589;28;20035;-52
2023/03/04 09:00:09;;;;;;;17.05;2.05;;;;;;;8.86;100.00;102649.31;5068457;28;20034;-54
2023/03/04 09:02:34;;;;;;;13.95;2.10;;;;;;;9.06;100.00;102650.34;5050921;28;20471;-52
2023/03/04 09:05:00;;;;;;;13.65;1.10;;;;;;;9.08;100.00;102639.47;5064786;28;20035;-52
2023/03/04 09:07:25;;;;;;;16.25;2.25;;;;;;;8.81;100.00;102639.94;5068136;28;20067;-53
2023/03/04 09:09:50;;;;;;;16.52;1.10;;;;;;;8.36;100.00;102651.56;5068367;28;20029;-55
2023/03/04 09:12:16;;;;;;;22.42;2.97;;;;;;;8.12;100.00;102649.84;5065960;28;20035;-54
2023/03/04 09:14:41;;;;;;;20.08;2.22;;;;;;;8.02;100.00;102654.22;5064669;28;20024;-51
2023/03/04 09:17:06;;;;;;;16.85;1.20;;;;;;;7.75;100.00;102664.44;5065676;28;20382;-51
2023/03/04 09:19:32;;;;;;;15.88;1.60;;;;;;;7.63;100.00;102664.41;5070157;28;20075;-55
2023/03/04 09:22:00;;;;;;;16.13;1.45;;;;;;;7.71;100.00;102661.13;5069451;28;20024;-54
2023/03/04 09:24:26;;;;;;;9.40;1.05;;;;;;;8.36;100.00;102673.88;5047974;28;20044;-52
2023/03/04 09:26:52;;;;;;;15.65;1.17;;;;;;;9.12;100.00;102683.91;5067567;28;20642;-53
2023/03/04 09:29:18;;;;;;;9.13;1.00;;;;;;;9.64;100.00;102674.16;5067637;28;20032;-52
2023/03/04 09:31:44;;;;;;;9.30;1.58;;;;;;;10.04;100.00;102659.94;5067777;28;20028;-54
2023/03/04 09:34:09;;;;;;;15.35;1.65;;;;;;;10.27;100.00;102653.44;5067818;28;20398;-52
2023/03/04 09:36:34;;;;;;;13.23;2.17;;;;;;;10.10;100.00;102648.63;5067722;28;20086;-51
2023/03/04 09:39:01;;;;;;;133.02;74.97;;;;;;;10.36;100.00;102642.84;5067585;28;20101;-52
2023/03/04 09:41:36;;;;;;;26.23;3.35;;;;;;;10.28;100.00;102643.50;5067280;28;20074;-53
2023/03/04 09:44:11;;;;;;;8.90;1.27;;;;;;;10.05;100.00;102632.03;5058170;28;20029;-53
2023/03/04 09:46:38;;;;;;;16.70;1.60;;;;;;;9.81;100.00;102630.50;5048167;28;20029;-52
2023/03/04 09:49:04;;;;;;;13.00;1.20;;;;;;;9.51;100.00;102633.16;5060348;28;20031;-53
2023/03/04 09:51:47;;;;;;;5.70;0.90;;;;;;;9.26;100.00;102640.59;5068753;28;20032;-52
2023/03/04 09:54:20;;;;;;;18.45;1.48;;;;;;;9.33;100.00;102641.81;5072135;28;20036;-52
2023/03/04 09:56:46;;;;;;;17.27;2.00;;;;;;;9.44;100.00;102639.03;5071744;28;20040;-53
2023/03/04 09:59:46;;;;;;;12.30;1.35;;;;;;;9.62;100.00;102636.63;5070883;28;20077;-52
2023/03/04 10:02:52;;;;;;;17.70;1.30;;;;;;;9.95;100.00;102632.00;5027623;28;20510;-51
2023/03/04 10:05:20;;;;;;;23.63;2.30;;;;;;;10.25;100.00;102628.47;5076108;28;20063;-56
2023/03/04 10:07:49;;;;;;;10.82;0.85;;;;;;;10.15;100.00;102622.19;5074324;28;20055;-53
2023/03/04 10:10:31;;;;;;;17.10;1.00;;;;;;;9.81;100.00;102625.13;5067438;28;20155;-54
2023/03/04 10:12:57;;;;;;;21.83;1.63;;;;;;;9.42;100.00;102638.31;5067949;28;20530;-53
2023/03/04 10:15:25;;;;;;;11.77;1.02;;;;;;;9.23;100.00;102640.88;5054015;28;20036;-53
2023/03/04 10:18:00;;;;;;;14.02;1.75;;;;;;;8.91;100.00;102652.47;5062793;28;20083;-53
2023/03/04 10:20:46;;;;;;;12.90;0.88;;;;;;;8.50;100.00;102655.84;5070440;28;20024;-52
2023/03/04 10:23:18;;;;;;;13.13;1.13;;;;;;;8.31;100.00;102664.47;5060054;28;20043;-54
2023/03/04 10:25:45;;;;;;;23.98;2.30;;;;;;;8.19;100.00;102663.66;5051905;28;20056;-53
2023/03/04 10:28:14;;;;;;;21.50;1.20;;;;;;;8.22;100.00;102667.91;5069531;28;20120;-53
2023/03/04 10:30:44;;;;;;;17.48;1.85;;;;;;;8.47;100.00;102670.34;5055450;28;20032;-52
2023/03/04 10:33:22;;;;;;;23.17;1.90;;;;;;;8.95;100.00;102671.84;5051537;28;20110;-53
2023/03/04 10:36:23;;;;;;;25.90;1.50;;;;;;;9.45;100.00;102673.03;5058046;28;20029;-54
2023/03/04 10:38:53;;;;;;;19.17;1.60;;;;;;;9.55;100.00;102666.84;5047876;28;20028;-57
2023/03/04 10:41:24;;;;;;;18.02;1.65;;;;;;;9.63;100.00;102654.44;5067366;28;20021;-52
2023/03/04 10:44:08;;;;;;;18.75;1.27;;;;;;;9.57;100.00;102646.06;5091843;28;20089;-53
2023/03/04 10:46:38;;;;;;;14.65;1.60;;;;;;;10.00;100.00;102645.88;5086999;28;20347;-53
2023/03/04 10:49:03;;;;;;;11.98;1.05;;;;;;;10.34;100.00;102640.25;5082117;28;20029;-54
2023/03/04 10:51:29;;;;;;;17.73;1.70;;;;;;;10.58;100.00;102623.75;5051489;28;20051;-56
2023/03/04 10:53:57;;;;;;;24.83;2.00;;;;;;;10.63;100.00;102629.56;5070125;28;20143;-55
2023/03/04 10:56:36;;;;;;;;;;;;;;;10.46;100.00;102622.19;5072267;28;20029;-54
2023/03/04 10:59:27;;;;;;;12.45;1.52;;;;;;;10.58;100.00;102612.13;5073715;28;19912;-51
2023/03/04 11:01:53;;;;;;;21.42;2.28;;;;;;;10.96;100.00;102611.34;5064496;28;20036;-52
2023/03/04 11:04:19;;;;;;;22.83;1.45;;;;;;;11.26;100.00;102613.03;5077358;28;20050;-54
2023/03/04 11:06:45;;;;;;;14.55;1.52;;;;;;;11.13;100.00;102607.09;5078741;28;20025;-55
2023/03/04 11:09:27;;;;;;;14.27;1.58;;;;;;;10.84;100.00;102599.00;5089938;28;20023;-53
2023/03/04 11:12:00;;;;;;;5.53;0.90;;;;;;;10.48;100.00;102596.84;5077968;28;20024;-54
2023/03/04 11:14:30;;;;;;;8.52;1.17;;;;;;;10.73;100.00;102606.22;5066620;28;20056;-52
2023/03/04 11:16:58;;;;;;;17.38;1.83;;;;;;;11.07;100.00;102607.66;5072311;28;20111;-52